CheckWX is a tool to help pilots better visualize weather data.  It is not intended as a substitute for an official pre-flight weather briefing.

18:03:22 UTC

KBPK METAR
Baxter County Airport
Mountain Home, Arkansas, USA
Current

10 mins ago

KBPK 121753Z AUTO 00000KT 10SM CLR M06/M13 A3057 RMK AO2 SLP364 T10561133 11050 21106 58017
Observed
Nov-12 @ 17:53 UTC
Visibility
10 SM
Flight Rules
VFR
Cloud Levels
  • Clear skies
Temperature
-6°C / 21°F
Dewpoint
-13°C / 9°F
Humidity
58%
Altimeter
30.57" Hg
Pressure
1035.22 hPa
Previous

1 hour ago

KBPK 121653Z AUTO 35008KT 10SM CLR M06/M15 A3060 RMK AO2 SLP374 T10611150
Observed
Nov-12 @ 16:53 UTC
Wind
  • 350° at 8 KTS
Visibility
10 SM
Flight Rules
VFR
Cloud Levels
  • Clear skies
Temperature
-6°C / 21°F
Dewpoint
-15°C / 5°F
Humidity
49%
Altimeter
30.6" Hg
Pressure
1036.22 hPa
Previous

2 hours ago

KBPK 121553Z AUTO 03008KT 360V060 10SM CLR M07/M16 A3062 RMK AO2 SLP382 T10721156
Observed
Nov-12 @ 15:53 UTC
Wind
  • 030° at 8 KTS
Visibility
10 SM
Flight Rules
VFR
Cloud Levels
  • Clear skies
Temperature
-7°C / 19°F
Dewpoint
-16°C / 3°F
Humidity
49%
Altimeter
30.62" Hg
Pressure
1036.92 hPa